createdAt,value
2018-04-10T00:01:33.453Z,15.02
2018-04-10T00:04:01.675Z,13.62
2018-04-10T00:06:29.300Z,14.57
2018-04-10T00:08:56.855Z,14.20
2018-04-10T00:11:24.841Z,13.45
2018-04-10T00:13:52.377Z,14.50
2018-04-10T00:16:19.933Z,16.00
2018-04-10T00:18:47.557Z,15.03
2018-04-10T00:21:15.141Z,14.93
2018-04-10T00:23:42.754Z,15.53
2018-04-10T00:26:10.339Z,14.40
2018-04-10T00:28:37.916Z,16.10
2018-04-10T00:31:05.463Z,16.17
2018-04-10T00:33:33.019Z,16.73
2018-04-10T00:36:01.162Z,15.30
2018-04-10T00:38:29.139Z,16.90
2018-04-10T00:40:57.125Z,17.00
2018-04-10T00:43:24.684Z,17.37
2018-04-10T00:45:52.596Z,17.40
2018-04-10T00:48:20.560Z,17.07
2018-04-10T00:50:48.778Z,17.83
2018-04-10T00:53:28.720Z,16.70
2018-04-10T00:55:56.667Z,16.80
2018-04-10T00:58:24.270Z,16.93
2018-04-10T01:00:51.830Z,16.58
2018-04-10T01:03:19.373Z,17.37
2018-04-10T01:05:46.944Z,18.07
2018-04-10T01:08:14.498Z,16.77
2018-04-10T01:10:42.055Z,18.07
2018-04-10T01:13:10.123Z,17.12
2018-04-10T01:15:37.706Z,18.57
2018-04-10T01:18:05.870Z,18.20
2018-04-10T01:20:33.463Z,18.17
2018-04-10T01:23:00.998Z,17.40
2018-04-10T01:25:28.573Z,17.27
2018-04-10T01:27:56.123Z,18.33
2018-04-10T01:30:23.767Z,18.02
2018-04-10T01:32:51.320Z,19.73
2018-04-10T01:35:18.922Z,18.37
2018-04-10T01:37:46.485Z,19.20
2018-04-10T01:40:14.125Z,17.77
2018-04-10T01:42:42.468Z,17.75
2018-04-10T01:45:10.908Z,17.40
2018-04-10T01:47:38.465Z,19.73
2018-04-10T01:50:06.043Z,17.23
2018-04-10T01:52:33.833Z,17.98
2018-04-10T01:55:01.776Z,17.33
2018-04-10T01:57:29.351Z,16.67
2018-04-10T01:59:57.612Z,17.43
2018-04-10T02:02:25.195Z,17.93
2018-04-10T02:04:53.152Z,18.13
2018-04-10T02:07:21.202Z,19.07
2018-04-10T02:09:48.752Z,18.70
2018-04-10T02:12:16.324Z,18.80
2018-04-10T02:14:43.884Z,18.33
2018-04-10T02:17:11.425Z,18.70
2018-04-10T02:19:38.972Z,19.23
2018-04-10T02:22:06.537Z,19.13
2018-04-10T02:24:34.115Z,17.83
2018-04-10T02:27:01.716Z,18.08
2018-04-10T02:29:29.635Z,16.00
2018-04-10T02:31:57.210Z,17.47
2018-04-10T02:34:24.771Z,17.42
2018-04-10T02:36:52.975Z,16.80
2018-04-10T02:39:20.908Z,18.15
2018-04-10T02:41:48.470Z,16.83
2018-04-10T02:44:16.024Z,18.00
2018-04-10T02:46:43.589Z,17.53
2018-04-10T02:49:11.815Z,17.60
2018-04-10T02:51:40.175Z,17.20
2018-04-10T02:54:08.178Z,18.73
2018-04-10T02:56:36.619Z,16.90
2018-04-10T02:59:04.568Z,16.43
2018-04-10T03:01:32.171Z,17.30
2018-04-10T03:03:59.790Z,15.60
2018-04-10T03:06:27.367Z,17.63
2018-04-10T03:08:56.158Z,18.75
2018-04-10T03:11:24.160Z,17.55
2018-04-10T03:13:52.342Z,18.37
2018-04-10T03:16:19.952Z,18.00
2018-04-10T03:18:47.511Z,17.93
2018-04-10T03:21:16.085Z,18.37
2018-04-10T03:23:43.694Z,23.27
2018-04-10T03:26:11.227Z,29.87
2018-04-10T03:28:38.785Z,45.70
2018-04-10T03:31:06.738Z,38.60
2018-04-10T03:33:34.559Z,31.70
2018-04-10T03:36:02.432Z,25.27
2018-04-10T03:38:29.984Z,18.80
2018-04-10T03:40:58.346Z,21.53
2018-04-10T03:43:25.937Z,19.90
2018-04-10T03:45:54.400Z,23.10
2018-04-10T03:48:22.819Z,22.00
2018-04-10T03:50:50.392Z,21.83
2018-04-10T03:53:18.866Z,21.33
2018-04-10T03:55:46.432Z,21.70
2018-04-10T03:58:13.946Z,19.92
2018-04-10T04:00:41.580Z,21.37
2018-04-10T04:03:09.140Z,21.37
2018-04-10T04:05:37.708Z,20.80
2018-04-10T04:08:06.869Z,22.10
2018-04-10T04:10:34.423Z,20.00
2018-04-10T04:13:02.053Z,20.73
2018-04-10T04:15:30.253Z,20.20
2018-04-10T04:17:58.341Z,20.33
2018-04-10T04:20:37.659Z,21.43
2018-04-10T04:23:05.223Z,20.70
2018-04-10T04:25:34.504Z,20.33
2018-04-10T04:28:02.065Z,20.73
2018-04-10T04:30:29.723Z,19.98
2018-04-10T04:32:57.605Z,19.00
2018-04-10T04:35:25.195Z,20.20
2018-04-10T04:37:52.766Z,20.30
2018-04-10T04:40:20.354Z,21.00
2018-04-10T04:42:49.118Z,20.40
2018-04-10T04:45:16.771Z,19.20
2018-04-10T04:47:44.335Z,21.13
2018-04-10T04:50:11.904Z,19.30
2018-04-10T04:52:39.504Z,20.07
2018-04-10T04:55:07.072Z,21.67
2018-04-10T04:57:35.885Z,20.15
2018-04-10T05:00:04.325Z,20.12
2018-04-10T05:02:31.876Z,20.03
2018-04-10T05:04:59.476Z,21.23
2018-04-10T05:07:27.043Z,19.90
2018-04-10T05:09:57.295Z,19.13
2018-04-10T05:12:25.318Z,21.87
2018-04-10T05:14:52.868Z,20.23
2018-04-10T05:17:20.412Z,19.98
2018-04-10T05:19:47.992Z,20.70
2018-04-10T05:22:15.581Z,18.97
2018-04-10T05:24:44.021Z,24.00
2018-04-10T05:27:11.981Z,19.83
2018-04-10T05:29:39.524Z,18.77
2018-04-10T05:32:07.523Z,17.80
2018-04-10T05:34:35.083Z,17.80
2018-04-10T05:37:02.627Z,19.50
2018-04-10T05:39:30.172Z,19.20
2018-04-10T05:41:57.800Z,20.00
2018-04-10T05:44:25.392Z,20.27
2018-04-10T05:46:52.952Z,20.98
2018-04-10T05:49:20.576Z,19.97
2018-04-10T05:51:48.155Z,20.10
2018-04-10T05:54:15.811Z,21.33
2018-04-10T05:56:43.548Z,20.90
2018-04-10T05:59:11.757Z,20.37
2018-04-10T06:01:39.326Z,20.17
2018-04-10T06:04:06.851Z,21.70
2018-04-10T06:06:34.472Z,19.83
2018-04-10T06:09:02.052Z,21.33
2018-04-10T06:11:29.676Z,20.23
2018-04-10T06:13:57.218Z,19.53
2018-04-10T06:16:24.772Z,19.90
2018-04-10T06:18:52.332Z,21.07
2018-04-10T06:21:19.886Z,21.57
2018-04-10T06:23:47.441Z,22.03
2018-04-10T06:26:15.013Z,21.00
2018-04-10T06:28:42.603Z,20.00
2018-04-10T06:31:10.139Z,21.23
2018-04-10T06:33:37.724Z,21.27
2018-04-10T06:36:05.326Z,19.83
2018-04-10T06:38:32.900Z,18.63
2018-04-10T06:41:01.294Z,19.33
2018-04-10T06:43:28.822Z,19.70
2018-04-10T06:45:56.766Z,18.87
2018-04-10T06:48:24.335Z,19.20
2018-04-10T06:50:51.899Z,18.90
2018-04-10T06:53:19.455Z,19.03
2018-04-10T06:55:47.040Z,19.07
2018-04-10T06:58:14.652Z,18.63
2018-04-10T07:00:42.195Z,18.30
2018-04-10T07:03:09.765Z,18.52
2018-04-10T07:05:38.008Z,20.20
2018-04-10T07:08:05.579Z,18.80
2018-04-10T07:10:33.147Z,19.60
2018-04-10T07:13:00.725Z,18.90
2018-04-10T07:15:28.291Z,20.27
2018-04-10T07:17:56.671Z,19.00
2018-04-10T07:20:24.229Z,20.20
2018-04-10T07:22:51.784Z,19.85
2018-04-10T07:25:19.428Z,20.00
2018-04-10T07:27:46.948Z,20.50
2018-04-10T07:30:14.503Z,21.17
2018-04-10T07:32:42.683Z,19.77
2018-04-10T07:35:10.297Z,21.63
2018-04-10T07:37:37.819Z,19.87
2018-04-10T07:40:05.377Z,23.60
2018-04-10T07:42:32.929Z,21.53
2018-04-10T07:45:00.496Z,20.27
2018-04-10T07:47:28.060Z,19.57
2018-04-10T07:49:55.600Z,20.87
2018-04-10T07:52:23.145Z,19.37
2018-04-10T07:54:50.688Z,18.87
2018-04-10T07:57:18.273Z,19.20
2018-04-10T07:59:45.831Z,19.77
2018-04-10T08:02:13.394Z,19.77
2018-04-10T08:04:42.411Z,21.02
2018-04-10T08:07:09.941Z,21.60
2018-04-10T08:09:37.511Z,19.70
2018-04-10T08:12:05.060Z,21.77
2018-04-10T08:14:32.904Z,21.17
2018-04-10T08:17:00.449Z,21.90
2018-04-10T08:19:28.024Z,21.17
2018-04-10T08:21:55.542Z,21.67
2018-04-10T08:24:23.124Z,21.80
2018-04-10T08:26:50.668Z,23.35
2018-04-10T08:29:18.310Z,22.80
2018-04-10T08:31:46.784Z,22.73
2018-04-10T08:34:14.339Z,21.70
2018-04-10T08:36:41.929Z,24.53
2018-04-10T08:39:09.462Z,23.50
2018-04-10T08:41:37.032Z,22.27
2018-04-10T08:44:05.599Z,22.77
2018-04-10T08:46:33.232Z,20.30
2018-04-10T08:49:00.791Z,22.23
2018-04-10T08:51:28.350Z,22.20
2018-04-10T08:53:55.920Z,21.50
2018-04-10T08:56:23.460Z,21.73
2018-04-10T08:58:51.259Z,21.40
2018-04-10T09:01:18.862Z,20.80
2018-04-10T09:03:47.281Z,21.83
2018-04-10T09:06:14.830Z,20.80
2018-04-10T09:08:42.461Z,20.67
2018-04-10T09:11:10.030Z,20.23
2018-04-10T09:13:37.615Z,18.97
2018-04-10T09:16:05.695Z,20.67
2018-04-10T09:18:34.944Z,17.60
2018-04-10T09:21:02.482Z,15.10
2018-04-10T09:23:30.085Z,13.03
2018-04-10T09:25:57.664Z,14.67
2018-04-10T09:28:25.217Z,15.20
2018-04-10T09:30:52.803Z,13.82
2018-04-10T09:33:20.372Z,15.30
2018-04-10T09:35:47.996Z,15.57
2018-04-10T09:38:15.559Z,16.30
2018-04-10T09:40:43.108Z,17.30
2018-04-10T09:43:11.513Z,16.20
2018-04-10T09:45:39.086Z,16.03
2018-04-10T09:48:06.657Z,15.48
2018-04-10T09:50:34.213Z,14.30
2018-04-10T09:53:02.658Z,12.27
2018-04-10T09:55:30.176Z,10.37
2018-04-10T09:57:57.723Z,8.65
2018-04-10T10:00:30.990Z,8.05
2018-04-10T10:02:58.520Z,8.90
2018-04-10T10:05:26.786Z,8.07
2018-04-10T10:07:55.215Z,8.27
2018-04-10T10:10:22.807Z,6.40
2018-04-10T10:12:51.294Z,7.10
2018-04-10T10:15:18.914Z,5.87
2018-04-10T10:17:46.424Z,3.17
2018-04-10T10:20:13.968Z,3.20
2018-04-10T10:22:41.646Z,2.80
2018-04-10T10:25:09.217Z,2.93
2018-04-10T10:27:36.749Z,2.70
2018-04-10T10:30:04.295Z,2.67
2018-04-10T10:32:31.840Z,1.87
2018-04-10T10:34:59.415Z,1.60
2018-04-10T10:37:26.956Z,2.00
2018-04-10T10:39:54.506Z,1.70
2018-04-10T10:42:22.033Z,1.77
2018-04-10T10:44:49.608Z,2.27
2018-04-10T10:47:17.881Z,2.20
2018-04-10T10:49:45.505Z,2.03
2018-04-10T10:52:13.036Z,1.90
2018-04-10T10:54:40.572Z,1.40
2018-04-10T10:57:08.115Z,1.50
2018-04-10T10:59:35.644Z,1.50
2018-04-10T11:02:03.189Z,1.17
2018-04-10T11:04:30.759Z,1.25
2018-04-10T11:06:58.338Z,1.40
2018-04-10T11:09:25.879Z,1.30
2018-04-10T11:11:53.443Z,1.20
2018-04-10T11:14:21.048Z,1.27
2018-04-10T11:16:48.590Z,1.40
2018-04-10T11:19:16.166Z,1.60
2018-04-10T11:21:43.727Z,1.33
2018-04-10T11:24:11.720Z,1.33
2018-04-10T11:26:39.284Z,1.20
2018-04-10T11:29:06.875Z,1.50
2018-04-10T11:31:34.584Z,1.37
2018-04-10T11:34:02.129Z,1.23
2018-04-10T11:36:29.700Z,1.50
2018-04-10T11:38:57.238Z,1.37
2018-04-10T11:41:24.832Z,1.50
2018-04-10T11:43:52.378Z,1.70
2018-04-10T11:46:21.400Z,1.17
2018-04-10T11:48:48.930Z,1.80
2018-04-10T11:51:16.451Z,1.33
2018-04-10T11:53:44.076Z,1.83
2018-04-10T11:56:11.659Z,2.37
2018-04-10T11:58:39.700Z,1.53
2018-04-10T12:01:07.303Z,1.90
2018-04-10T12:03:34.882Z,1.63
2018-04-10T12:06:02.452Z,1.77
2018-04-10T12:08:29.997Z,1.70
2018-04-10T12:10:57.588Z,1.83
2018-04-10T12:13:25.849Z,1.70
2018-04-10T12:15:54.176Z,1.70
2018-04-10T12:18:21.822Z,1.80
2018-04-10T12:20:49.405Z,1.73
2018-04-10T12:23:16.976Z,1.40
2018-04-10T12:25:46.165Z,1.80
2018-04-10T12:28:15.787Z,1.30
2018-04-10T12:30:43.369Z,1.40
2018-04-10T12:33:10.902Z,1.83
2018-04-10T12:35:38.490Z,1.53
2018-04-10T12:38:06.052Z,1.50
2018-04-10T12:40:33.634Z,1.30
2018-04-10T12:43:01.240Z,1.73
2018-04-10T12:45:28.825Z,1.98
2018-04-10T12:47:56.442Z,2.30
2018-04-10T12:50:23.978Z,1.70
2018-04-10T12:52:51.534Z,1.70
2018-04-10T12:55:19.150Z,2.20
2018-04-10T12:57:46.722Z,2.58
2018-04-10T13:00:14.670Z,2.37
2018-04-10T13:02:42.251Z,2.50
2018-04-10T13:05:09.877Z,2.20
2018-04-10T13:07:37.450Z,2.60
2018-04-10T13:10:05.028Z,2.53
2018-04-10T13:12:32.660Z,2.80
2018-04-10T13:15:00.196Z,2.70
2018-04-10T13:17:27.740Z,2.35
2018-04-10T13:19:55.322Z,1.93
2018-04-10T13:22:22.916Z,2.30
2018-04-10T13:24:50.505Z,2.60
2018-04-10T13:27:18.063Z,2.20
2018-04-10T13:29:45.605Z,2.07
2018-04-10T13:32:13.182Z,2.00
2018-04-10T13:34:40.770Z,2.23
2018-04-10T13:37:08.336Z,2.33
2018-04-10T13:39:35.922Z,2.43
2018-04-10T13:42:03.555Z,2.50
2018-04-10T13:44:31.391Z,2.33
2018-04-10T13:46:59.764Z,2.43
2018-04-10T13:49:27.307Z,2.50
2018-04-10T13:51:54.888Z,2.28
2018-04-10T13:54:22.555Z,2.20
2018-04-10T13:56:50.004Z,2.10
2018-04-10T13:59:17.571Z,2.80
2018-04-10T14:01:45.095Z,2.30
2018-04-10T14:04:12.681Z,2.40
2018-04-10T14:06:40.304Z,2.70
2018-04-10T14:09:08.019Z,2.40
2018-04-10T14:11:35.548Z,2.47
2018-04-10T14:14:03.116Z,2.67
2018-04-10T14:16:30.684Z,3.03
2018-04-10T14:18:58.238Z,3.10
2018-04-10T14:21:25.812Z,3.00
2018-04-10T14:23:53.393Z,3.00
2018-04-10T14:26:20.979Z,3.00
2018-04-10T14:28:49.388Z,2.33
2018-04-10T14:31:17.899Z,2.97
2018-04-10T14:33:45.435Z,2.40
2018-04-10T14:36:13.702Z,2.70
2018-04-10T14:38:41.240Z,3.00
2018-04-10T14:41:08.785Z,2.70
2018-04-10T14:43:36.343Z,2.70
2018-04-10T14:46:03.898Z,2.77
2018-04-10T14:48:31.482Z,2.80
2018-04-10T14:50:59.029Z,2.60
2018-04-10T14:53:26.586Z,3.37
2018-04-10T14:55:54.129Z,3.05
2018-04-10T14:58:23.545Z,2.33
2018-04-10T15:00:51.107Z,3.53
2018-04-10T15:03:18.734Z,3.07
2018-04-10T15:05:46.478Z,2.90
2018-04-10T15:08:14.239Z,3.63
2018-04-10T15:10:50.712Z,3.27
2018-04-10T15:13:21.152Z,3.67
2018-04-10T15:15:50.056Z,3.47
2018-04-10T15:18:20.237Z,3.25
2018-04-10T15:20:51.340Z,3.10
2018-04-10T15:23:20.664Z,3.17
2018-04-10T15:25:50.400Z,3.10
2018-04-10T15:28:19.232Z,3.87
2018-04-10T15:33:33.521Z,4.57
2018-04-10T15:38:47.470Z,4.05
2018-04-10T15:41:17.668Z,4.70
2018-04-10T15:43:45.303Z,4.93
2018-04-10T15:46:20.538Z,4.12
2018-04-10T15:48:52.904Z,4.03
2018-04-10T15:51:22.575Z,3.93
2018-04-10T15:57:29.325Z,3.70
2018-04-10T15:59:57.855Z,3.70
2018-04-10T16:02:25.755Z,4.23
2018-04-10T16:04:53.795Z,3.97
2018-04-10T16:07:22.062Z,4.07
2018-04-10T16:09:49.589Z,3.85
2018-04-10T16:12:17.300Z,4.50
2018-04-10T16:14:45.242Z,3.30
2018-04-10T16:17:13.079Z,3.30
2018-04-10T16:19:41.357Z,3.53
2018-04-10T16:22:09.098Z,3.53
2018-04-10T16:24:36.676Z,3.63
2018-04-10T16:27:05.936Z,3.20
2018-04-10T16:29:34.073Z,4.50
2018-04-10T16:32:01.850Z,4.10
2018-04-10T16:34:29.489Z,3.60
2018-04-10T16:36:57.073Z,3.80
2018-04-10T16:39:24.705Z,3.53
2018-04-10T16:41:52.275Z,3.77
2018-04-10T16:44:19.810Z,3.50
2018-04-10T16:46:47.351Z,4.40
2018-04-10T16:49:14.931Z,3.37
2018-04-10T16:51:42.514Z,4.10
2018-04-10T16:54:10.151Z,3.93
2018-04-10T16:56:37.712Z,4.10
2018-04-10T16:59:05.273Z,4.23
2018-04-10T17:01:32.879Z,4.77
2018-04-10T17:04:00.440Z,5.60
2018-04-10T17:06:28.026Z,5.57
2018-04-10T17:08:55.589Z,5.00
2018-04-10T17:11:23.141Z,4.40
2018-04-10T17:13:50.853Z,4.05
2018-04-10T17:16:18.395Z,3.50
2018-04-10T17:18:46.069Z,3.50
2018-04-10T17:21:13.625Z,3.70
2018-04-10T17:23:41.187Z,3.10
2018-04-10T17:26:08.758Z,3.80
2018-04-10T17:28:36.307Z,3.50
2018-04-10T17:31:03.896Z,3.60
2018-04-10T17:33:31.607Z,3.50
2018-04-10T17:35:59.173Z,2.70
2018-04-10T17:38:26.739Z,2.43
2018-04-10T17:40:54.292Z,3.30
2018-04-10T17:43:21.875Z,3.40
2018-04-10T17:45:49.593Z,4.30
2018-04-10T17:48:17.152Z,4.00
2018-04-10T17:50:44.745Z,5.45
2018-04-10T17:53:12.397Z,5.50
2018-04-10T17:55:40.486Z,4.23
2018-04-10T17:58:08.098Z,5.40
2018-04-10T18:00:35.699Z,4.60
2018-04-10T18:03:03.277Z,5.03
2018-04-10T18:05:30.858Z,5.50
2018-04-10T18:07:58.428Z,5.43
2018-04-10T18:10:26.305Z,4.23
2018-04-10T18:12:55.329Z,4.23
2018-04-10T18:15:22.889Z,3.60
2018-04-10T18:17:50.427Z,4.10
2018-04-10T18:20:18.409Z,3.17
2018-04-10T18:22:45.978Z,4.25
2018-04-10T18:25:13.601Z,4.30
2018-04-10T18:27:41.196Z,3.40
2018-04-10T18:30:08.816Z,5.20
2018-04-10T18:32:37.477Z,3.90
2018-04-10T18:35:05.987Z,3.17
2018-04-10T18:37:33.615Z,4.37
2018-04-10T18:40:01.176Z,3.70
2018-04-10T18:42:28.806Z,2.80
2018-04-10T18:44:56.825Z,3.07
2018-04-10T18:47:24.455Z,2.83
2018-04-10T18:49:52.023Z,2.70
2018-04-10T18:54:54.011Z,3.50
2018-04-10T18:57:21.570Z,2.25
2018-04-10T18:59:49.148Z,2.63
2018-04-10T19:02:16.726Z,2.70
2018-04-10T19:04:48.393Z,3.17
2018-04-10T19:07:33.878Z,3.60
2018-04-10T19:10:06.088Z,3.53
2018-04-10T19:12:40.077Z,2.77
2018-04-10T19:19:18.281Z,2.40
2018-04-10T19:27:59.855Z,2.79
2018-04-10T19:36:24.676Z,2.80
2018-04-10T19:39:05.285Z,2.70
2018-04-10T19:41:52.429Z,2.30
2018-04-10T19:44:21.977Z,2.37
2018-04-10T19:46:55.397Z,2.50
2018-04-10T19:49:23.512Z,3.03
2018-04-10T19:52:10.706Z,2.20
2018-04-10T19:55:05.523Z,2.73
2018-04-10T19:57:51.425Z,2.72
2018-04-10T20:00:34.629Z,2.10
2018-04-10T20:05:51.036Z,2.27
2018-04-10T20:08:23.446Z,2.20
2018-04-10T20:10:54.824Z,1.93
2018-04-10T20:13:22.471Z,1.97
2018-04-10T20:18:45.099Z,1.80
2018-04-10T20:21:14.629Z,3.08
2018-04-10T20:23:42.712Z,3.10
2018-04-10T20:26:10.334Z,2.10
2018-04-10T20:28:39.877Z,2.30
2018-04-10T20:31:07.478Z,1.90
2018-04-10T20:33:35.102Z,2.10
2018-04-10T20:36:04.042Z,1.80
2018-04-10T20:38:31.807Z,1.90
2018-04-10T20:40:59.392Z,2.10
2018-04-10T20:43:27.940Z,1.80
2018-04-10T20:45:57.260Z,2.07
2018-04-10T20:48:33.786Z,2.30
2018-04-10T20:51:01.573Z,2.53
2018-04-10T20:53:30.255Z,2.70
2018-04-10T20:55:57.871Z,1.43
2018-04-10T20:58:25.535Z,1.70
2018-04-10T21:00:53.634Z,2.00
2018-04-10T21:03:21.293Z,1.70
2018-04-10T21:05:48.846Z,2.00
2018-04-10T21:08:16.402Z,1.80
2018-04-10T21:10:44.413Z,1.58
2018-04-10T21:13:11.991Z,1.60
2018-04-10T21:15:39.609Z,1.80
2018-04-10T21:18:07.155Z,1.70
2018-04-10T21:20:36.434Z,2.07
2018-04-10T21:23:04.063Z,1.53
2018-04-10T21:25:33.120Z,1.80
2018-04-10T21:28:01.143Z,2.30
2018-04-10T21:30:28.734Z,1.70
2018-04-10T21:33:02.175Z,1.80
2018-04-10T21:35:29.929Z,1.40
2018-04-10T21:37:57.525Z,1.70
2018-04-10T21:40:25.099Z,2.03
2018-04-10T21:42:58.960Z,1.95
2018-04-10T21:45:26.546Z,2.00
2018-04-10T21:47:54.091Z,2.80
2018-04-10T21:50:21.650Z,2.57
2018-04-10T21:52:49.236Z,1.77
2018-04-10T21:55:16.805Z,1.87
2018-04-10T21:57:44.937Z,2.00
2018-04-10T22:00:12.530Z,2.13
2018-04-10T22:02:40.105Z,2.80
2018-04-10T22:05:07.671Z,2.50
2018-04-10T22:07:35.224Z,3.20
2018-04-10T22:10:02.797Z,3.50
2018-04-10T22:12:30.759Z,2.90
2018-04-10T22:14:58.753Z,3.23
2018-04-10T22:17:26.323Z,3.03
2018-04-10T22:19:53.893Z,3.30
2018-04-10T22:22:21.425Z,2.90
2018-04-10T22:24:48.987Z,2.70
2018-04-10T22:27:16.550Z,3.00
2018-04-10T22:29:44.143Z,2.73
2018-04-10T22:32:11.713Z,3.35
2018-04-10T22:34:39.286Z,5.43
2018-04-10T22:37:06.885Z,5.40
2018-04-10T22:39:34.452Z,7.27
2018-04-10T22:42:02.012Z,7.20
2018-04-10T22:44:29.569Z,3.93
2018-04-10T22:46:57.129Z,8.20
2018-04-10T22:49:24.754Z,7.05
2018-04-10T22:51:52.896Z,9.70
2018-04-10T22:54:25.659Z,6.13
2018-04-10T22:56:53.978Z,4.77
2018-04-10T22:59:21.591Z,4.30
2018-04-10T23:01:49.193Z,5.07
2018-04-10T23:04:17.308Z,3.85
2018-04-10T23:06:44.872Z,4.00
2018-04-10T23:09:12.437Z,4.23
2018-04-10T23:11:39.961Z,4.87
2018-04-10T23:14:07.516Z,5.10
2018-04-10T23:16:35.629Z,3.93
2018-04-10T23:19:03.216Z,4.47
2018-04-10T23:21:30.790Z,4.20
2018-04-10T23:23:58.339Z,5.07
2018-04-10T23:26:25.904Z,4.70
2018-04-10T23:28:53.480Z,4.93
2018-04-10T23:31:21.641Z,5.27
2018-04-10T23:33:49.221Z,5.87
2018-04-10T23:36:17.201Z,7.27
2018-04-10T23:38:45.133Z,7.15
2018-04-10T23:41:13.259Z,7.00
2018-04-10T23:43:41.199Z,6.77
2018-04-10T23:46:08.746Z,6.35
2018-04-10T23:48:36.312Z,6.23
2018-04-10T23:51:03.903Z,5.87
2018-04-10T23:53:31.898Z,6.32
2018-04-10T23:55:59.778Z,5.80
2018-04-10T23:58:27.597Z,4.90
